sensor_id;sensor_type;location;lat;lon;timestamp;temperature;humidity
42489;DHT22;28118;52.388;9.452;2022-12-16T00:01:54;-6.50;99.90
42489;DHT22;28118;52.388;9.452;2022-12-16T00:04:21;-6.50;99.90
42489;DHT22;28118;52.388;9.452;2022-12-16T00:06:47;-6.60;99.90
42489;DHT22;28118;52.388;9.452;2022-12-16T00:09:14;-6.60;99.90
42489;DHT22;28118;52.388;9.452;2022-12-16T00:11:40;-6.70;99.90
42489;DHT22;28118;52.388;9.452;2022-12-16T00:14:07;-6.70;99.90
42489;DHT22;28118;52.388;9.452;2022-12-16T00:16:34;-6.70;99.90
42489;DHT22;28118;52.388;9.452;2022-12-16T00:19:00;-6.70;99.90
42489;DHT22;28118;52.388;9.452;2022-12-16T00:21:27;-6.70;99.90
42489;DHT22;28118;52.388;9.452;2022-12-16T00:23:56;-6.70;99.90
42489;DHT22;28118;52.388;9.452;2022-12-16T00:26:22;-6.90;99.90
42489;DHT22;28118;52.388;9.452;2022-12-16T00:28:49;-6.90;99.90
42489;DHT22;28118;52.388;9.452;2022-12-16T00:31:17;-6.90;99.90
42489;DHT22;28118;52.388;9.452;2022-12-16T00:33:43;-6.90;99.90
42489;DHT22;28118;52.388;9.452;2022-12-16T00:36:10;-6.90;99.90
42489;DHT22;28118;52.388;9.452;2022-12-16T00:38:37;-7.00;99.90
42489;DHT22;28118;52.388;9.452;2022-12-16T00:41:04;-7.00;99.90
42489;DHT22;28118;52.388;9.452;2022-12-16T00:43:31;-7.00;99.90
42489;DHT22;28118;52.388;9.452;2022-12-16T00:45:58;-7.00;99.90
42489;DHT22;28118;52.388;9.452;2022-12-16T00:48:25;-7.00;99.90
42489;DHT22;28118;52.388;9.452;2022-12-16T00:50:53;-7.00;99.90
42489;DHT22;28118;52.388;9.452;2022-12-16T00:53:22;-7.10;99.90
42489;DHT22;28118;52.388;9.452;2022-12-16T00:55:49;-7.10;99.90
42489;DHT22;28118;52.388;9.452;2022-12-16T00:58:16;-7.00;99.90
42489;DHT22;28118;52.388;9.452;2022-12-16T01:00:42;-7.00;99.90
42489;DHT22;28118;52.388;9.452;2022-12-16T01:03:09;-7.10;99.90
42489;DHT22;28118;52.388;9.452;2022-12-16T01:05:38;-7.00;99.90
42489;DHT22;28118;52.388;9.452;2022-12-16T01:08:05;-7.00;99.90
42489;DHT22;28118;52.388;9.452;2022-12-16T01:10:32;-6.90;99.90
42489;DHT22;28118;52.388;9.452;2022-12-16T01:12:58;-6.80;99.90
42489;DHT22;28118;52.388;9.452;2022-12-16T01:15:25;-6.90;99.90
42489;DHT22;28118;52.388;9.452;2022-12-16T01:17:52;-6.90;99.90
42489;DHT22;28118;52.388;9.452;2022-12-16T01:20:20;-7.00;99.90
42489;DHT22;28118;52.388;9.452;2022-12-16T01:22:47;-7.10;99.90
42489;DHT22;28118;52.388;9.452;2022-12-16T01:25:14;-7.20;99.90
42489;DHT22;28118;52.388;9.452;2022-12-16T01:27:40;-7.20;99.90
42489;DHT22;28118;52.388;9.452;2022-12-16T01:30:08;-7.30;99.90
42489;DHT22;28118;52.388;9.452;2022-12-16T01:32:35;-7.20;99.90
42489;DHT22;28118;52.388;9.452;2022-12-16T01:35:02;-7.10;99.90
42489;DHT22;28118;52.388;9.452;2022-12-16T01:37:43;-7.20;99.90
42489;DHT22;28118;52.388;9.452;2022-12-16T01:40:18;-7.30;99.90
42489;DHT22;28118;52.388;9.452;2022-12-16T01:42:45;-7.20;99.90
42489;DHT22;28118;52.388;9.452;2022-12-16T01:45:41;-7.20;99.90
42489;DHT22;28118;52.388;9.452;2022-12-16T01:50:47;-7.00;99.90
42489;DHT22;28118;52.388;9.452;2022-12-16T01:53:14;-7.20;99.90
42489;DHT22;28118;52.388;9.452;2022-12-16T01:55:47;-7.30;99.90
42489;DHT22;28118;52.388;9.452;2022-12-16T01:58:21;-7.40;99.90
42489;DHT22;28118;52.388;9.452;2022-12-16T02:00:49;-7.30;99.90
42489;DHT22;28118;52.388;9.452;2022-12-16T02:03:16;-7.30;99.90
42489;DHT22;28118;52.388;9.452;2022-12-16T02:05:43;-7.20;99.90
42489;DHT22;28118;52.388;9.452;2022-12-16T02:08:16;-7.30;99.90
42489;DHT22;28118;52.388;9.452;2022-12-16T02:21:17;-7.30;99.90
42489;DHT22;28118;52.388;9.452;2022-12-16T02:26:55;-7.30;99.90
42489;DHT22;28118;52.388;9.452;2022-12-16T02:32:34;-7.20;99.90
42489;DHT22;28118;52.388;9.452;2022-12-16T02:35:41;-7.20;99.90
42489;DHT22;28118;52.388;9.452;2022-12-16T02:38:40;-7.20;99.90
42489;DHT22;28118;52.388;9.452;2022-12-16T02:41:46;-7.20;99.90
42489;DHT22;28118;52.388;9.452;2022-12-16T02:44:16;-7.20;99.90
42489;DHT22;28118;52.388;9.452;2022-12-16T02:46:54;-7.40;99.90
42489;DHT22;28118;52.388;9.452;2022-12-16T02:51:48;-7.30;99.90
42489;DHT22;28118;52.388;9.452;2022-12-16T02:54:16;-7.30;99.90
42489;DHT22;28118;52.388;9.452;2022-12-16T02:57:19;-7.30;99.90
42489;DHT22;28118;52.388;9.452;2022-12-16T03:00:00;-7.50;99.90
42489;DHT22;28118;52.388;9.452;2022-12-16T03:02:57;-7.50;99.90
42489;DHT22;28118;52.388;9.452;2022-12-16T03:07:56;-7.70;99.90
42489;DHT22;28118;52.388;9.452;2022-12-16T03:10:28;-7.60;99.90
42489;DHT22;28118;52.388;9.452;2022-12-16T03:12:57;-7.60;99.90
42489;DHT22;28118;52.388;9.452;2022-12-16T03:15:26;-7.60;99.90
42489;DHT22;28118;52.388;9.452;2022-12-16T03:17:55;-7.60;99.90
42489;DHT22;28118;52.388;9.452;2022-12-16T03:20:31;-7.70;99.90
42489;DHT22;28118;52.388;9.452;2022-12-16T03:23:02;-7.70;99.90
42489;DHT22;28118;52.388;9.452;2022-12-16T03:25:32;-7.70;99.90
42489;DHT22;28118;52.388;9.452;2022-12-16T03:28:11;-7.80;99.90
42489;DHT22;28118;52.388;9.452;2022-12-16T03:30:46;-7.80;99.90
42489;DHT22;28118;52.388;9.452;2022-12-16T03:33:28;-7.80;99.90
42489;DHT22;28118;52.388;9.452;2022-12-16T03:36:03;-7.90;99.90
42489;DHT22;28118;52.388;9.452;2022-12-16T03:38:32;-7.70;99.90
42489;DHT22;28118;52.388;9.452;2022-12-16T03:41:01;-7.60;99.90
42489;DHT22;28118;52.388;9.452;2022-12-16T03:43:28;-7.60;99.90
42489;DHT22;28118;52.388;9.452;2022-12-16T03:46:00;-7.70;99.90
42489;DHT22;28118;52.388;9.452;2022-12-16T03:48:28;-7.70;99.90
42489;DHT22;28118;52.388;9.452;2022-12-16T03:50:54;-7.60;99.90
42489;DHT22;28118;52.388;9.452;2022-12-16T03:53:21;-7.60;99.90
42489;DHT22;28118;52.388;9.452;2022-12-16T03:55:54;-7.60;99.90
42489;DHT22;28118;52.388;9.452;2022-12-16T03:58:21;-7.60;99.90
42489;DHT22;28118;52.388;9.452;2022-12-16T04:00:47;-7.60;99.90
42489;DHT22;28118;52.388;9.452;2022-12-16T04:03:14;-7.50;99.90
42489;DHT22;28118;52.388;9.452;2022-12-16T04:05:41;-7.50;99.90
42489;DHT22;28118;52.388;9.452;2022-12-16T04:08:08;-7.50;99.90
42489;DHT22;28118;52.388;9.452;2022-12-16T04:10:34;-7.50;99.90
42489;DHT22;28118;52.388;9.452;2022-12-16T04:13:20;-7.60;99.90
42489;DHT22;28118;52.388;9.452;2022-12-16T04:16:10;-7.60;99.90
42489;DHT22;28118;52.388;9.452;2022-12-16T04:18:58;-7.60;99.90
42489;DHT22;28118;52.388;9.452;2022-12-16T04:21:43;-7.50;99.90
42489;DHT22;28118;52.388;9.452;2022-12-16T04:24:29;-7.50;99.90
42489;DHT22;28118;52.388;9.452;2022-12-16T04:26:56;-7.80;99.90
42489;DHT22;28118;52.388;9.452;2022-12-16T04:29:42;-7.80;99.90
42489;DHT22;28118;52.388;9.452;2022-12-16T04:32:28;-7.90;99.90
42489;DHT22;28118;52.388;9.452;2022-12-16T04:35:15;-7.90;99.90
42489;DHT22;28118;52.388;9.452;2022-12-16T04:38:00;-7.90;99.90
42489;DHT22;28118;52.388;9.452;2022-12-16T04:40:46;-8.00;99.90
42489;DHT22;28118;52.388;9.452;2022-12-16T04:43:31;-8.10;99.90
42489;DHT22;28118;52.388;9.452;2022-12-16T04:46:16;-8.20;99.90
42489;DHT22;28118;52.388;9.452;2022-12-16T04:49:02;-8.20;99.90
42489;DHT22;28118;52.388;9.452;2022-12-16T04:51:47;-8.10;99.90
42489;DHT22;28118;52.388;9.452;2022-12-16T04:54:32;-8.20;99.90
42489;DHT22;28118;52.388;9.452;2022-12-16T04:57:18;-8.30;99.90
42489;DHT22;28118;52.388;9.452;2022-12-16T05:00:04;-8.20;99.90
42489;DHT22;28118;52.388;9.452;2022-12-16T05:02:52;-8.20;99.90
42489;DHT22;28118;52.388;9.452;2022-12-16T05:05:40;-8.20;99.90
42489;DHT22;28118;52.388;9.452;2022-12-16T05:08:25;-8.10;99.90
42489;DHT22;28118;52.388;9.452;2022-12-16T05:11:11;-8.10;99.90
42489;DHT22;28118;52.388;9.452;2022-12-16T05:13:56;-8.00;99.90
42489;DHT22;28118;52.388;9.452;2022-12-16T05:16:42;-8.10;99.90
42489;DHT22;28118;52.388;9.452;2022-12-16T05:19:27;-8.10;99.90
42489;DHT22;28118;52.388;9.452;2022-12-16T05:22:12;-8.10;99.90
42489;DHT22;28118;52.388;9.452;2022-12-16T05:24:58;-8.10;99.90
42489;DHT22;28118;52.388;9.452;2022-12-16T05:27:43;-8.20;99.90
42489;DHT22;28118;52.388;9.452;2022-12-16T05:30:28;-8.20;99.90
42489;DHT22;28118;52.388;9.452;2022-12-16T05:33:14;-8.20;99.90
42489;DHT22;28118;52.388;9.452;2022-12-16T05:36:00;-8.20;99.90
42489;DHT22;28118;52.388;9.452;2022-12-16T05:38:45;-8.10;99.90
42489;DHT22;28118;52.388;9.452;2022-12-16T05:41:30;-8.20;99.90
42489;DHT22;28118;52.388;9.452;2022-12-16T05:44:15;-8.20;99.90
42489;DHT22;28118;52.388;9.452;2022-12-16T05:47:01;-8.20;99.90
42489;DHT22;28118;52.388;9.452;2022-12-16T05:49:46;-8.30;99.90
42489;DHT22;28118;52.388;9.452;2022-12-16T05:52:32;-8.20;99.90
42489;DHT22;28118;52.388;9.452;2022-12-16T05:55:17;-8.20;99.90
42489;DHT22;28118;52.388;9.452;2022-12-16T05:58:02;-8.20;99.90
42489;DHT22;28118;52.388;9.452;2022-12-16T06:00:48;-8.30;99.90
42489;DHT22;28118;52.388;9.452;2022-12-16T06:03:33;-8.20;99.90
42489;DHT22;28118;52.388;9.452;2022-12-16T06:06:19;-8.10;99.90
42489;DHT22;28118;52.388;9.452;2022-12-16T06:09:04;-8.10;99.90
42489;DHT22;28118;52.388;9.452;2022-12-16T06:11:50;-8.30;99.90
42489;DHT22;28118;52.388;9.452;2022-12-16T06:14:35;-8.20;99.90
42489;DHT22;28118;52.388;9.452;2022-12-16T06:17:21;-8.30;99.90
42489;DHT22;28118;52.388;9.452;2022-12-16T06:20:06;-8.30;99.90
42489;DHT22;28118;52.388;9.452;2022-12-16T06:22:53;-8.30;99.90
42489;DHT22;28118;52.388;9.452;2022-12-16T06:25:40;-8.30;99.90
42489;DHT22;28118;52.388;9.452;2022-12-16T06:28:25;-8.40;99.90
42489;DHT22;28118;52.388;9.452;2022-12-16T06:31:12;-8.30;99.90
42489;DHT22;28118;52.388;9.452;2022-12-16T06:33:57;-8.20;99.90
42489;DHT22;28118;52.388;9.452;2022-12-16T06:36:43;-8.20;99.90
42489;DHT22;28118;52.388;9.452;2022-12-16T06:39:28;-8.30;99.90
42489;DHT22;28118;52.388;9.452;2022-12-16T06:42:18;-8.30;99.90
42489;DHT22;28118;52.388;9.452;2022-12-16T06:45:04;-8.30;99.90
42489;DHT22;28118;52.388;9.452;2022-12-16T06:47:50;-8.30;99.90
42489;DHT22;28118;52.388;9.452;2022-12-16T06:50:35;-8.40;99.90
42489;DHT22;28118;52.388;9.452;2022-12-16T06:53:21;-8.30;99.90
42489;DHT22;28118;52.388;9.452;2022-12-16T06:56:07;-8.20;99.90
42489;DHT22;28118;52.388;9.452;2022-12-16T06:58:52;-8.20;99.90
42489;DHT22;28118;52.388;9.452;2022-12-16T07:01:37;-8.10;99.90
42489;DHT22;28118;52.388;9.452;2022-12-16T07:04:23;-8.20;99.90
42489;DHT22;28118;52.388;9.452;2022-12-16T07:07:08;-8.10;99.90
42489;DHT22;28118;52.388;9.452;2022-12-16T07:09:54;-8.10;99.90
42489;DHT22;28118;52.388;9.452;2022-12-16T07:12:39;-8.00;99.90
42489;DHT22;28118;52.388;9.452;2022-12-16T07:15:24;-7.90;99.90
42489;DHT22;28118;52.388;9.452;2022-12-16T07:18:10;-7.80;99.90
42489;DHT22;28118;52.388;9.452;2022-12-16T07:20:55;-7.60;99.90
42489;DHT22;28118;52.388;9.452;2022-12-16T07:23:41;-7.60;99.90
42489;DHT22;28118;52.388;9.452;2022-12-16T07:26:26;-7.50;99.90
42489;DHT22;28118;52.388;9.452;2022-12-16T07:29:11;-7.40;99.90
42489;DHT22;28118;52.388;9.452;2022-12-16T07:31:57;-7.30;99.90
42489;DHT22;28118;52.388;9.452;2022-12-16T07:34:42;-7.10;99.90
42489;DHT22;28118;52.388;9.452;2022-12-16T07:37:28;-7.00;99.90
42489;DHT22;28118;52.388;9.452;2022-12-16T07:40:13;-6.90;99.90
42489;DHT22;28118;52.388;9.452;2022-12-16T07:43:06;-6.60;99.90
42489;DHT22;28118;52.388;9.452;2022-12-16T07:46:02;-6.60;99.90
42489;DHT22;28118;52.388;9.452;2022-12-16T07:48:58;-6.50;99.90
42489;DHT22;28118;52.388;9.452;2022-12-16T07:51:44;-6.40;99.90
42489;DHT22;28118;52.388;9.452;2022-12-16T07:54:29;-6.30;99.90
42489;DHT22;28118;52.388;9.452;2022-12-16T07:57:15;-6.20;99.90
42489;DHT22;28118;52.388;9.452;2022-12-16T08:00:00;-6.10;99.90
42489;DHT22;28118;52.388;9.452;2022-12-16T08:02:54;-6.00;99.90
42489;DHT22;28118;52.388;9.452;2022-12-16T08:05:39;-6.00;99.90
42489;DHT22;28118;52.388;9.452;2022-12-16T08:08:25;-6.00;99.90
42489;DHT22;28118;52.388;9.452;2022-12-16T08:11:10;-5.80;99.90
42489;DHT22;28118;52.388;9.452;2022-12-16T08:13:55;-5.70;99.90
42489;DHT22;28118;52.388;9.452;2022-12-16T08:16:41;-5.70;99.90
42489;DHT22;28118;52.388;9.452;2022-12-16T08:19:26;-5.80;99.90
42489;DHT22;28118;52.388;9.452;2022-12-16T08:22:12;-5.70;99.90
42489;DHT22;28118;52.388;9.452;2022-12-16T08:24:57;-5.60;99.90
42489;DHT22;28118;52.388;9.452;2022-12-16T08:27:43;-5.40;99.90
42489;DHT22;28118;52.388;9.452;2022-12-16T08:30:28;-5.20;99.90
42489;DHT22;28118;52.388;9.452;2022-12-16T08:33:14;-5.30;99.90
42489;DHT22;28118;52.388;9.452;2022-12-16T08:36:00;-5.10;99.90
42489;DHT22;28118;52.388;9.452;2022-12-16T08:38:45;-5.00;99.90
42489;DHT22;28118;52.388;9.452;2022-12-16T08:41:31;-4.90;99.90
42489;DHT22;28118;52.388;9.452;2022-12-16T08:44:16;-4.90;99.90
42489;DHT22;28118;52.388;9.452;2022-12-16T08:47:02;-4.80;99.90
42489;DHT22;28118;52.388;9.452;2022-12-16T08:49:47;-4.60;99.90
42489;DHT22;28118;52.388;9.452;2022-12-16T08:52:32;-4.40;99.90
42489;DHT22;28118;52.388;9.452;2022-12-16T08:55:18;-4.30;99.90
42489;DHT22;28118;52.388;9.452;2022-12-16T08:58:03;-4.20;99.90
42489;DHT22;28118;52.388;9.452;2022-12-16T09:00:48;-4.20;99.90
42489;DHT22;28118;52.388;9.452;2022-12-16T09:03:35;-4.10;99.90
42489;DHT22;28118;52.388;9.452;2022-12-16T09:06:21;-3.90;99.90
42489;DHT22;28118;52.388;9.452;2022-12-16T09:09:07;-3.80;99.90
42489;DHT22;28118;52.388;9.452;2022-12-16T09:11:53;-3.80;99.90
42489;DHT22;28118;52.388;9.452;2022-12-16T09:14:38;-3.70;99.90
42489;DHT22;28118;52.388;9.452;2022-12-16T09:17:24;-3.60;99.90
42489;DHT22;28118;52.388;9.452;2022-12-16T09:20:09;-3.50;99.90
42489;DHT22;28118;52.388;9.452;2022-12-16T09:22:55;-3.30;99.90
42489;DHT22;28118;52.388;9.452;2022-12-16T09:25:40;-3.20;99.90
42489;DHT22;28118;52.388;9.452;2022-12-16T09:28:33;-3.30;99.90
42489;DHT22;28118;52.388;9.452;2022-12-16T09:31:18;-3.10;99.90
42489;DHT22;28118;52.388;9.452;2022-12-16T09:34:04;-3.00;99.90
42489;DHT22;28118;52.388;9.452;2022-12-16T09:36:49;-3.00;99.90
42489;DHT22;28118;52.388;9.452;2022-12-16T09:39:34;-3.00;99.90
42489;DHT22;28118;52.388;9.452;2022-12-16T09:42:53;-2.80;99.90
42489;DHT22;28118;52.388;9.452;2022-12-16T09:46:05;-2.80;99.90
42489;DHT22;28118;52.388;9.452;2022-12-16T09:49:15;-3.10;99.90
42489;DHT22;28118;52.388;9.452;2022-12-16T09:52:07;-3.00;99.90
42489;DHT22;28118;52.388;9.452;2022-12-16T09:54:56;-2.90;99.90
42489;DHT22;28118;52.388;9.452;2022-12-16T09:57:59;-2.90;99.90
42489;DHT22;28118;52.388;9.452;2022-12-16T10:00:44;-2.80;99.90
42489;DHT22;28118;52.388;9.452;2022-12-16T10:03:37;-2.80;99.90
42489;DHT22;28118;52.388;9.452;2022-12-16T10:06:48;-2.80;99.90
42489;DHT22;28118;52.388;9.452;2022-12-16T10:13:36;-2.50;99.90
42489;DHT22;28118;52.388;9.452;2022-12-16T10:16:36;-2.40;99.90
42489;DHT22;28118;52.388;9.452;2022-12-16T10:20:05;-2.10;99.90
42489;DHT22;28118;52.388;9.452;2022-12-16T10:28:49;-1.80;99.90
42489;DHT22;28118;52.388;9.452;2022-12-16T10:31:37;-1.80;99.90
42489;DHT22;28118;52.388;9.452;2022-12-16T10:34:28;-1.80;99.90
42489;DHT22;28118;52.388;9.452;2022-12-16T10:37:28;-1.70;99.90
42489;DHT22;28118;52.388;9.452;2022-12-16T10:40:18;-1.70;99.90
42489;DHT22;28118;52.388;9.452;2022-12-16T10:43:38;-1.70;99.90
42489;DHT22;28118;52.388;9.452;2022-12-16T10:46:28;-2.00;99.90
42489;DHT22;28118;52.388;9.452;2022-12-16T10:49:17;-2.00;99.90
42489;DHT22;28118;52.388;9.452;2022-12-16T10:52:02;-2.00;99.90
42489;DHT22;28118;52.388;9.452;2022-12-16T10:58:14;-2.10;99.90
42489;DHT22;28118;52.388;9.452;2022-12-16T11:01:22;-2.00;99.90
42489;DHT22;28118;52.388;9.452;2022-12-16T11:04:36;-2.00;99.90
42489;DHT22;28118;52.388;9.452;2022-12-16T11:10:29;-1.90;99.90
42489;DHT22;28118;52.388;9.452;2022-12-16T11:13:28;-1.80;99.90
42489;DHT22;28118;52.388;9.452;2022-12-16T11:16:25;-1.80;99.90
42489;DHT22;28118;52.388;9.452;2022-12-16T11:19:23;-1.90;99.90
42489;DHT22;28118;52.388;9.452;2022-12-16T11:22:19;-1.90;99.90
42489;DHT22;28118;52.388;9.452;2022-12-16T11:25:14;-2.00;99.90
42489;DHT22;28118;52.388;9.452;2022-12-16T11:28:24;-1.80;99.90
42489;DHT22;28118;52.388;9.452;2022-12-16T11:31:13;-1.60;99.90
42489;DHT22;28118;52.388;9.452;2022-12-16T11:34:01;-1.60;99.90
42489;DHT22;28118;52.388;9.452;2022-12-16T11:36:48;-1.60;99.90
42489;DHT22;28118;52.388;9.452;2022-12-16T11:39:36;-1.50;99.90
42489;DHT22;28118;52.388;9.452;2022-12-16T11:42:25;-1.30;99.90
42489;DHT22;28118;52.388;9.452;2022-12-16T11:45:20;-1.00;99.90
42489;DHT22;28118;52.388;9.452;2022-12-16T11:48:20;-0.80;99.90
42489;DHT22;28118;52.388;9.452;2022-12-16T11:51:11;-1.00;99.90
42489;DHT22;28118;52.388;9.452;2022-12-16T11:54:08;-1.10;99.90
42489;DHT22;28118;52.388;9.452;2022-12-16T11:56:57;-1.30;99.90
42489;DHT22;28118;52.388;9.452;2022-12-16T11:59:52;-1.40;99.90
42489;DHT22;28118;52.388;9.452;2022-12-16T12:03:10;-1.10;99.90
42489;DHT22;28118;52.388;9.452;2022-12-16T12:06:06;-0.80;99.90
42489;DHT22;28118;52.388;9.452;2022-12-16T12:12:46;-0.50;99.90
42489;DHT22;28118;52.388;9.452;2022-12-16T12:15:48;-0.30;99.90
42489;DHT22;28118;52.388;9.452;2022-12-16T12:18:53;-0.20;99.90
42489;DHT22;28118;52.388;9.452;2022-12-16T12:22:01;-0.20;99.90
42489;DHT22;28118;52.388;9.452;2022-12-16T12:24:55;-0.10;99.90
42489;DHT22;28118;52.388;9.452;2022-12-16T12:28:04;0.00;99.90
42489;DHT22;28118;52.388;9.452;2022-12-16T12:31:01;0.00;99.90
42489;DHT22;28118;52.388;9.452;2022-12-16T12:33:59;0.00;99.90
42489;DHT22;28118;52.388;9.452;2022-12-16T12:36:52;0.10;99.90
42489;DHT22;28118;52.388;9.452;2022-12-16T12:39:46;0.10;99.90
42489;DHT22;28118;52.388;9.452;2022-12-16T12:42:43;0.00;99.90
42489;DHT22;28118;52.388;9.452;2022-12-16T12:46:03;-0.10;99.90
42489;DHT22;28118;52.388;9.452;2022-12-16T12:48:56;0.00;99.90
42489;DHT22;28118;52.388;9.452;2022-12-16T12:52:16;0.10;99.90
42489;DHT22;28118;52.388;9.452;2022-12-16T12:55:24;0.20;99.90
42489;DHT22;28118;52.388;9.452;2022-12-16T12:58:12;0.20;99.90
42489;DHT22;28118;52.388;9.452;2022-12-16T13:01:00;0.30;99.90
42489;DHT22;28118;52.388;9.452;2022-12-16T13:03:52;0.30;99.90
42489;DHT22;28118;52.388;9.452;2022-12-16T13:06:41;0.30;99.90
42489;DHT22;28118;52.388;9.452;2022-12-16T13:09:30;0.30;99.90
42489;DHT22;28118;52.388;9.452;2022-12-16T13:12:28;0.20;99.90
42489;DHT22;28118;52.388;9.452;2022-12-16T13:15:19;0.20;99.90
42489;DHT22;28118;52.388;9.452;2022-12-16T13:20:55;0.10;99.90
42489;DHT22;28118;52.388;9.452;2022-12-16T13:23:42;0.10;99.90
42489;DHT22;28118;52.388;9.452;2022-12-16T13:26:30;0.20;99.90
42489;DHT22;28118;52.388;9.452;2022-12-16T13:29:23;0.20;99.90
42489;DHT22;28118;52.388;9.452;2022-12-16T13:32:18;0.10;99.90
42489;DHT22;28118;52.388;9.452;2022-12-16T13:46:51;0.00;99.90
42489;DHT22;28118;52.388;9.452;2022-12-16T13:49:46;0.00;99.90
42489;DHT22;28118;52.388;9.452;2022-12-16T13:52:54;0.10;99.90
42489;DHT22;28118;52.388;9.452;2022-12-16T13:55:59;0.00;99.90
42489;DHT22;28118;52.388;9.452;2022-12-16T13:58:51;0.00;99.90
42489;DHT22;28118;52.388;9.452;2022-12-16T14:01:51;0.10;99.90
42489;DHT22;28118;52.388;9.452;2022-12-16T14:04:57;0.00;99.90
42489;DHT22;28118;52.388;9.452;2022-12-16T14:07:43;0.00;99.90
42489;DHT22;28118;52.388;9.452;2022-12-16T14:10:29;0.00;99.90
42489;DHT22;28118;52.388;9.452;2022-12-16T14:13:39;0.00;99.90
42489;DHT22;28118;52.388;9.452;2022-12-16T14:16:45;-0.10;99.90
42489;DHT22;28118;52.388;9.452;2022-12-16T14:22:42;0.00;99.90
42489;DHT22;28118;52.388;9.452;2022-12-16T14:25:30;0.00;99.90
42489;DHT22;28118;52.388;9.452;2022-12-16T14:28:45;-0.10;99.90
42489;DHT22;28118;52.388;9.452;2022-12-16T14:31:40;-0.10;99.90
42489;DHT22;28118;52.388;9.452;2022-12-16T14:37:14;-0.20;99.90
42489;DHT22;28118;52.388;9.452;2022-12-16T14:40:00;-0.20;99.90
42489;DHT22;28118;52.388;9.452;2022-12-16T14:42:50;-0.20;99.90
42489;DHT22;28118;52.388;9.452;2022-12-16T14:45:38;-0.20;99.90
42489;DHT22;28118;52.388;9.452;2022-12-16T14:48:34;-0.30;99.90
42489;DHT22;28118;52.388;9.452;2022-12-16T14:54:19;-0.40;99.90
42489;DHT22;28118;52.388;9.452;2022-12-16T14:57:10;-0.40;99.90
42489;DHT22;28118;52.388;9.452;2022-12-16T15:00:20;-0.50;99.90
42489;DHT22;28118;52.388;9.452;2022-12-16T15:03:18;-0.50;99.90
42489;DHT22;28118;52.388;9.452;2022-12-16T15:06:13;-0.60;99.90
42489;DHT22;28118;52.388;9.452;2022-12-16T15:09:25;-0.70;99.90
42489;DHT22;28118;52.388;9.452;2022-12-16T15:12:12;-0.70;99.90
42489;DHT22;28118;52.388;9.452;2022-12-16T15:14:58;-0.80;99.90
42489;DHT22;28118;52.388;9.452;2022-12-16T15:17:51;-0.80;99.90
42489;DHT22;28118;52.388;9.452;2022-12-16T15:20:53;-0.70;99.90
42489;DHT22;28118;52.388;9.452;2022-12-16T15:23:41;-0.80;99.90
42489;DHT22;28118;52.388;9.452;2022-12-16T15:26:30;-0.80;99.90
42489;DHT22;28118;52.388;9.452;2022-12-16T15:29:32;-1.00;99.90
42489;DHT22;28118;52.388;9.452;2022-12-16T15:32:27;-1.10;99.90
42489;DHT22;28118;52.388;9.452;2022-12-16T15:35:33;-1.20;99.90
42489;DHT22;28118;52.388;9.452;2022-12-16T15:41:28;-1.30;99.90
42489;DHT22;28118;52.388;9.452;2022-12-16T15:44:15;-1.40;99.90
42489;DHT22;28118;52.388;9.452;2022-12-16T15:47:01;-1.30;99.90
42489;DHT22;28118;52.388;9.452;2022-12-16T15:49:47;-1.50;99.90
42489;DHT22;28118;52.388;9.452;2022-12-16T15:52:37;-1.50;99.90
42489;DHT22;28118;52.388;9.452;2022-12-16T15:55:32;-1.60;99.90
42489;DHT22;28118;52.388;9.452;2022-12-16T15:58:30;-1.60;99.90
42489;DHT22;28118;52.388;9.452;2022-12-16T16:01:19;-1.70;99.90
42489;DHT22;28118;52.388;9.452;2022-12-16T16:04:24;-1.70;99.90
42489;DHT22;28118;52.388;9.452;2022-12-16T16:07:15;-1.70;99.90
42489;DHT22;28118;52.388;9.452;2022-12-16T16:10:21;-1.80;99.90
42489;DHT22;28118;52.388;9.452;2022-12-16T16:13:07;-1.80;99.90
42489;DHT22;28118;52.388;9.452;2022-12-16T16:15:52;-1.80;99.90
42489;DHT22;28118;52.388;9.452;2022-12-16T16:18:39;-1.80;99.90
42489;DHT22;28118;52.388;9.452;2022-12-16T16:21:24;-1.80;99.90
42489;DHT22;28118;52.388;9.452;2022-12-16T16:24:10;-1.90;99.90
42489;DHT22;28118;52.388;9.452;2022-12-16T16:26:58;-1.80;99.90
42489;DHT22;28118;52.388;9.452;2022-12-16T16:29:54;-1.70;99.90
42489;DHT22;28118;52.388;9.452;2022-12-16T16:32:40;-1.80;99.90
42489;DHT22;28118;52.388;9.452;2022-12-16T16:35:25;-1.80;99.90
42489;DHT22;28118;52.388;9.452;2022-12-16T16:38:11;-1.80;99.90
42489;DHT22;28118;52.388;9.452;2022-12-16T16:40:56;-1.90;99.90
42489;DHT22;28118;52.388;9.452;2022-12-16T16:43:41;-1.80;99.90
42489;DHT22;28118;52.388;9.452;2022-12-16T16:46:38;-1.90;99.90
42489;DHT22;28118;52.388;9.452;2022-12-16T16:49:40;-1.90;99.90
42489;DHT22;28118;52.388;9.452;2022-12-16T16:52:26;-1.90;99.90
42489;DHT22;28118;52.388;9.452;2022-12-16T16:55:18;-2.00;99.90
42489;DHT22;28118;52.388;9.452;2022-12-16T16:58:13;-1.90;99.90
42489;DHT22;28118;52.388;9.452;2022-12-16T17:01:00;-1.90;99.90
42489;DHT22;28118;52.388;9.452;2022-12-16T17:03:46;-1.90;99.90
42489;DHT22;28118;52.388;9.452;2022-12-16T17:06:31;-2.00;99.90
42489;DHT22;28118;52.388;9.452;2022-12-16T17:09:16;-2.00;99.90
42489;DHT22;28118;52.388;9.452;2022-12-16T17:12:19;-2.00;99.90
42489;DHT22;28118;52.388;9.452;2022-12-16T17:15:27;-1.90;99.90
42489;DHT22;28118;52.388;9.452;2022-12-16T17:18:13;-2.00;99.90
42489;DHT22;28118;52.388;9.452;2022-12-16T17:20:58;-1.90;99.90
42489;DHT22;28118;52.388;9.452;2022-12-16T17:23:43;-1.90;99.90
42489;DHT22;28118;52.388;9.452;2022-12-16T17:26:29;-2.00;99.90
42489;DHT22;28118;52.388;9.452;2022-12-16T17:29:18;-1.90;99.90
42489;DHT22;28118;52.388;9.452;2022-12-16T17:32:04;-1.90;99.90
42489;DHT22;28118;52.388;9.452;2022-12-16T17:34:49;-2.00;99.90
42489;DHT22;28118;52.388;9.452;2022-12-16T17:37:35;-2.00;99.90
42489;DHT22;28118;52.388;9.452;2022-12-16T17:40:20;-2.00;99.90
42489;DHT22;28118;52.388;9.452;2022-12-16T17:43:06;-2.00;99.90
42489;DHT22;28118;52.388;9.452;2022-12-16T17:45:59;-2.00;99.90
42489;DHT22;28118;52.388;9.452;2022-12-16T17:48:48;-2.10;99.90
42489;DHT22;28118;52.388;9.452;2022-12-16T17:51:34;-2.00;99.90
42489;DHT22;28118;52.388;9.452;2022-12-16T17:54:19;-2.00;99.90
42489;DHT22;28118;52.388;9.452;2022-12-16T17:57:04;-2.00;99.90
42489;DHT22;28118;52.388;9.452;2022-12-16T17:59:50;-2.10;99.90
42489;DHT22;28118;52.388;9.452;2022-12-16T18:02:35;-2.00;99.90
42489;DHT22;28118;52.388;9.452;2022-12-16T18:05:21;-1.90;99.90
42489;DHT22;28118;52.388;9.452;2022-12-16T18:08:10;-1.90;99.90
42489;DHT22;28118;52.388;9.452;2022-12-16T18:10:56;-2.00;99.90
42489;DHT22;28118;52.388;9.452;2022-12-16T18:13:42;-2.00;99.90
42489;DHT22;28118;52.388;9.452;2022-12-16T18:16:27;-2.00;99.90
42489;DHT22;28118;52.388;9.452;2022-12-16T18:19:14;-2.00;99.90
42489;DHT22;28118;52.388;9.452;2022-12-16T18:22:00;-2.00;99.90
42489;DHT22;28118;52.388;9.452;2022-12-16T18:24:46;-2.00;99.90
42489;DHT22;28118;52.388;9.452;2022-12-16T18:27:31;-2.00;99.90
42489;DHT22;28118;52.388;9.452;2022-12-16T18:30:16;-2.00;99.90
42489;DHT22;28118;52.388;9.452;2022-12-16T18:33:02;-2.00;99.90
42489;DHT22;28118;52.388;9.452;2022-12-16T18:35:47;-2.00;99.90
42489;DHT22;28118;52.388;9.452;2022-12-16T18:38:33;-1.90;99.90
42489;DHT22;28118;52.388;9.452;2022-12-16T18:41:20;-2.00;99.90